Orbital elements of N-1 R/B
| Launched | 2 September 1982 |
| Flight ended | – |
| Launch site | Tanegashima Space Center, Japan |
| Owner | Japan |
| NORAD ID | 13493 |
| Date fetched |
Epoch osculation |
Inc. [°] |
Ecc. | RA asc node [hr] |
Arg Peri. [°] |
Mean anom [°] |
Mean motion [rev/day] |
Abs. mag |
| Date fetched |
Epoch osculation |
Inc. [°] |
Ecc. | RA asc node [hr] |
Arg Peri. [°] |
Mean anom [°] |
Mean motion [rev/day] |
Abs. mag |
| 2026 May 08 17:57 | 2026 May 05 11:51:51 | 44.6217 | 0.01732 | 10.5674 | 338.3164 | 166.1861 | 13.44770 | 7.243 |
| 2026 May 07 17:58 | 2026 May 05 11:51:51 | 44.6217 | 0.01732 | 10.5674 | 338.3164 | 166.1861 | 13.44770 | 7.243 |
| 2026 May 06 17:57 | 2026 May 05 11:51:51 | 44.6217 | 0.01732 | 10.5674 | 338.3164 | 166.1861 | 13.44770 | 7.243 |
| 2026 May 05 17:57 | 2026 May 05 11:51:51 | 44.6217 | 0.01732 | 10.5674 | 338.3164 | 166.1861 | 13.44770 | 7.243 |
| 2026 May 04 17:57 | 2026 Apr 30 14:15:49 | 44.6223 | 0.01734 | 11.9016 | 316.8445 | 166.1861 | 13.44770 | 7.243 |
| 2026 May 03 17:57 | 2026 Apr 30 14:15:49 | 44.6223 | 0.01734 | 11.9016 | 316.8445 | 166.1861 | 13.44770 | 7.243 |
| 2026 May 02 17:57 | 2026 Apr 30 14:15:49 | 44.6223 | 0.01734 | 11.9016 | 316.8445 | 166.1861 | 13.44770 | 7.243 |
| 2026 May 01 17:56 | 2026 Apr 30 14:15:49 | 44.6223 | 0.01734 | 11.9016 | 316.8445 | 166.1861 | 13.44770 | 7.243 |
| 2026 Apr 30 17:56 | 2026 Apr 30 14:15:49 | 44.6223 | 0.01734 | 11.9016 | 316.8445 | 166.1861 | 13.44770 | 7.243 |
| 2026 Apr 29 17:57 | 2026 Apr 24 06:01:55 | 44.6234 | 0.01736 | 13.6286 | 289.0939 | 166.1861 | 13.44770 | 7.243 |
| 2026 Apr 28 17:56 | 2026 Apr 24 06:01:55 | 44.6234 | 0.01736 | 13.6286 | 289.0939 | 166.1861 | 13.44770 | 7.243 |
| 2026 Apr 27 17:58 | 2026 Apr 24 06:01:55 | 44.6234 | 0.01736 | 13.6286 | 289.0939 | 166.1861 | 13.44770 | 7.243 |
| 2026 Apr 26 17:58 | 2026 Apr 24 06:01:55 | 44.6234 | 0.01736 | 13.6286 | 289.0939 | 166.1861 | 13.44770 | 7.243 |
| 2026 Apr 25 17:58 | 2026 Apr 24 06:01:55 | 44.6234 | 0.01736 | 13.6286 | 289.0939 | 166.1861 | 13.44770 | 7.243 |
| 2026 Apr 24 17:59 | 2026 Apr 24 06:01:55 | 44.6234 | 0.01736 | 13.6286 | 289.0939 | 166.1861 | 13.44770 | 7.243 |
| 2026 Apr 23 17:57 | 2026 Apr 19 08:23:10 | 44.6236 | 0.01736 | 14.9632 | 267.6683 | 166.1861 | 13.44770 | 7.243 |
| 2026 Apr 22 17:57 | 2026 Apr 19 08:23:10 | 44.6236 | 0.01736 | 14.9632 | 267.6683 | 166.1861 | 13.44770 | 7.243 |
| 2026 Apr 21 17:57 | 2026 Apr 19 08:23:10 | 44.6236 | 0.01736 | 14.9632 | 267.6683 | 166.1861 | 13.44770 | 7.243 |
| 2026 Apr 20 17:57 | 2026 Apr 19 08:23:10 | 44.6236 | 0.01736 | 14.9632 | 267.6683 | 166.1861 | 13.44770 | 7.243 |
| 2026 Apr 19 17:58 | 2026 Apr 19 08:23:10 | 44.6236 | 0.01736 | 14.9632 | 267.6683 | 166.1861 | 13.44770 | 7.243 |
| 2026 Apr 18 17:56 | 2026 Apr 13 03:17:54 | 44.6239 | 0.01735 | 16.6545 | 240.5160 | 166.1861 | 13.44770 | 7.243 |
| 2026 Apr 16 17:57 | 2026 Apr 13 03:17:54 | 44.6239 | 0.01735 | 16.6545 | 240.5160 | 166.1861 | 13.44770 | 7.243 |
| 2026 Apr 14 17:57 | 2026 Apr 13 03:17:54 | 44.6239 | 0.01735 | 16.6545 | 240.5160 | 166.1861 | 13.44770 | 7.243 |
| 2026 Apr 13 17:57 | 2026 Apr 13 03:17:54 | 44.6239 | 0.01735 | 16.6545 | 240.5160 | 166.1861 | 13.44770 | 7.243 |
| 2026 Apr 12 17:57 | 2026 Apr 08 10:10:53 | 44.6233 | 0.01733 | 17.9378 | 219.8864 | 166.1861 | 13.44770 | 7.243 |
| 2026 Apr 11 17:57 | 2026 Apr 08 10:10:53 | 44.6233 | 0.01733 | 17.9378 | 219.8864 | 166.1861 | 13.44770 | 7.243 |